
Distance (Route):
Temperature : -45.4°C
Humidity : 0%
Pressure : 0hPa| Receiver | Frames | First received | Last received |
|---|---|---|---|
| WB7NNF | 285 | 2026-09-03 17:24:14 | 2026-09-03 19:11:23 |
| Receiver | Date | Latitude | Longitude | Direction | Speed | Altitude | Climb | Temperature | Humidity | Pressure | Voltage | Killtimer | Uptime | BKT | XDATA |
|---|---|---|---|---|---|---|---|---|---|---|---|---|---|---|---|
| WB7NNF | 2026-09-03 19:11:23 | 48.23862 | -117.03712 | 42° | 120km/h | 9795m | -12.3m/s | -45.4°C | 0% | 0hPa | 0V | 00:00:00 | 00:00:00 | 00:00:00 | |
| WB7NNF | 2026-09-03 19:11:00 | 48.23367 | -117.04402 | 45° | 120km/h | 10084m | -12.8m/s | -46.1°C | 0% | 0hPa | 0V | 00:00:00 | 00:00:00 | 00:00:00 | |
| WB7NNF | 2026-09-03 19:10:21 | 48.22567 | -117.05503 | 42° | 106km/h | 10585m | -11.6m/s | -46.3°C | 0% | 0hPa | 0V | 00:00:00 | 00:00:00 | 00:00:00 | |
| WB7NNF | 2026-09-03 19:09:48 | 48.21885 | -117.06304 | 37° | 100km/h | 10955m | -10.9m/s | -45.6°C | 0% | 0hPa | 0V | 00:00:00 | 00:00:00 | 00:00:00 | |
| WB7NNF | 2026-09-03 19:09:27 | 48.21493 | -117.06706 | 31° | 89km/h | 11173m | -11.2m/s | -44.0°C | 0% | 0hPa | 0V | 00:00:00 | 00:00:00 | 00:00:00 | |
| WB7NNF | 2026-09-03 19:06:57 | 48.19021 | -117.09675 | 35° | 73km/h | 12857m | -10.8m/s | -46.9°C | 0% | 0hPa | 0V | 00:00:00 | 00:00:00 | 00:00:00 | |
| WB7NNF | 2026-09-03 19:06:37 | 48.18684 | -117.09997 | 37° | 77km/h | 13091m | -11.4m/s | -46.7°C | 0% | 0hPa | 0V | 00:00:00 | 00:00:00 | 00:00:00 | |
| WB7NNF | 2026-09-03 19:06:16 | 48.18412 | -117.10338 | 38° | 64km/h | 13315m | -10.8m/s | -46.9°C | 0% | 0hPa | 0V | 00:00:00 | 00:00:00 | 00:00:00 | |
| WB7NNF | 2026-09-03 19:05:56 | 48.18126 | -117.10603 | 32° | 64km/h | 13547m | -11.2m/s | -47.9°C | 0% | 0hPa | 0V | 00:00:00 | 00:00:00 | 00:00:00 | |
| WB7NNF | 2026-09-03 19:05:35 | 48.17860 | -117.10871 | 41° | 62km/h | 13772m | -11.0m/s | -48.0°C | 0% | 0hPa | 0V | 00:00:00 | 00:00:00 | 00:00:00 | |
| WB7NNF | 2026-09-03 19:05:15 | 48.17605 | -117.11185 | 37° | 64km/h | 14010m | -11.6m/s | -47.6°C | 0% | 0hPa | 0V | 00:00:00 | 00:00:00 | 00:00:00 | |
| WB7NNF | 2026-09-03 19:04:54 | 48.17353 | -117.11464 | 38° | 58km/h | 14275m | -11.6m/s | -47.3°C | 0% | 0hPa | 0V | 00:00:00 | 00:00:00 | 00:00:00 | |
| WB7NNF | 2026-09-03 19:04:34 | 48.17135 | -117.11681 | 25° | 42km/h | 14540m | -11.4m/s | -48.0°C | 0% | 0hPa | 0V | 00:00:00 | 00:00:00 | 00:00:00 | |
| WB7NNF | 2026-09-03 19:04:13 | 48.16978 | -117.11770 | 18° | 29km/h | 14782m | -11.5m/s | -49.5°C | 0% | 0hPa | 0V | 00:00:00 | 00:00:00 | 00:00:00 | |
| WB7NNF | 2026-09-03 19:03:53 | 48.16805 | -117.11838 | 23° | 44km/h | 15024m | -11.3m/s | -50.6°C | 0% | 0hPa | 0V | 00:00:00 | 00:00:00 | 00:00:00 | |
| WB7NNF | 2026-09-03 19:03:32 | 48.16596 | -117.11980 | 26° | 51km/h | 15252m | -11.4m/s | -50.3°C | 0% | 0hPa | 0V | 00:00:00 | 00:00:00 | 00:00:00 | |
| WB7NNF | 2026-09-03 19:03:12 | 48.16314 | -117.12208 | 38° | 66km/h | 15493m | -11.5m/s | -49.6°C | 0% | 0hPa | 0V | 00:00:00 | 00:00:00 | 00:00:00 | |
| WB7NNF | 2026-09-03 19:02:51 | 48.16156 | -117.12473 | 55° | 27km/h | 15853m | -18.6m/s | -49.2°C | 0% | 0hPa | 0V | 00:00:00 | 00:00:00 | 00:00:00 | |
| WB7NNF | 2026-09-03 19:02:31 | 48.16092 | -117.12632 | 52° | 26km/h | 16235m | -17.4m/s | -50.8°C | 0% | 0hPa | 0V | 00:00:00 | 00:00:00 | 00:00:00 | |
| WB7NNF | 2026-09-03 19:02:10 | 48.15980 | -117.12756 | 14° | 38km/h | 16624m | -17.5m/s | -50.8°C | 0% | 0hPa | 0V | 00:00:00 | 00:00:00 | 00:00:00 | |
| WB7NNF | 2026-09-03 19:01:49 | 48.15777 | -117.12851 | 21° | 55km/h | 16998m | -14.8m/s | -48.8°C | 0% | 0hPa | 0V | 00:00:00 | 00:00:00 | 00:00:00 | |
| WB7NNF | 2026-09-03 19:01:29 | 48.15613 | -117.13051 | 50° | 29km/h | 17286m | -13.9m/s | -47.3°C | 0% | 0hPa | 0V | 00:00:00 | 00:00:00 | 00:00:00 | |
| WB7NNF | 2026-09-03 19:01:08 | 48.15513 | -117.13139 | 4° | 24km/h | 17561m | -13.6m/s | -48.9°C | 0% | 0hPa | 0V | 00:00:00 | 00:00:00 | 00:00:00 | |
| WB7NNF | 2026-09-03 19:00:48 | 48.15357 | -117.13172 | 350° | 35km/h | 17848m | -14.1m/s | -49.5°C | 0% | 0hPa | 0V | 00:00:00 | 00:00:00 | 00:00:00 | |
| WB7NNF | 2026-09-03 19:00:27 | 48.15131 | -117.13229 | 21° | 47km/h | 18133m | -14.3m/s | -49.9°C | 0% | 0hPa | 0V | 00:00:00 | 00:00:00 | 00:00:00 | |
| WB7NNF | 2026-09-03 19:00:07 | 48.14904 | -117.13334 | 47° | 42km/h | 18448m | -15.4m/s | -50.1°C | 0% | 0hPa | 0V | 00:00:00 | 00:00:00 | 00:00:00 | |
| WB7NNF | 2026-09-03 18:59:46 | 48.14791 | -117.13514 | 39° | 27km/h | 18758m | -15.6m/s | -50.3°C | 0% | 0hPa | 0V | 00:00:00 | 00:00:00 | 00:00:00 | |
| WB7NNF | 2026-09-03 18:59:26 | 48.14694 | -117.13633 | 21° | 29km/h | 19086m | -15.9m/s | -50.5°C | 0% | 0hPa | 0V | 00:00:00 | 00:00:00 | 00:00:00 | |
| WB7NNF | 2026-09-03 18:59:05 | 48.14605 | -117.13829 | 90° | 29km/h | 19404m | -16.1m/s | -50.7°C | 0% | 0hPa | 0V | 00:00:00 | 00:00:00 | 00:00:00 | |
| WB7NNF | 2026-09-03 18:58:24 | 48.14623 | -117.14017 | 109° | 7km/h | 20077m | -17.1m/s | -52.8°C | 0% | 0hPa | 0V | 00:00:00 | 00:00:00 | 00:00:00 | |
| WB7NNF | 2026-09-03 18:58:04 | 48.14605 | -117.13906 | 333° | 24km/h | 20433m | -16.4m/s | -52.8°C | 0% | 0hPa | 0V | 00:00:00 | 00:00:00 | 00:00:00 | |
| WB7NNF | 2026-09-03 18:57:43 | 48.14508 | -117.13728 | 322° | 35km/h | 20787m | -17.9m/s | -52.3°C | 0% | 0hPa | 0V | 00:00:00 | 00:00:00 | 00:00:00 | |
| WB7NNF | 2026-09-03 18:57:23 | 48.14490 | -117.13643 | 148° | 9km/h | 21164m | -18.5m/s | -53.1°C | 0% | 0hPa | 0V | 00:00:00 | 00:00:00 | 00:00:00 | |
| WB7NNF | 2026-09-03 18:57:02 | 48.14451 | -117.13627 | 353° | 5km/h | 21550m | -19.2m/s | -53.9°C | 0% | 0hPa | 0V | 00:00:00 | 00:00:00 | 00:00:00 | |
| WB7NNF | 2026-09-03 18:56:41 | 48.14425 | -117.13610 | 326° | 15km/h | 21930m | -19.7m/s | -54.6°C | 0% | 0hPa | 0V | 00:00:00 | 00:00:00 | 00:00:00 | |
| WB7NNF | 2026-09-03 18:56:21 | 48.14388 | -117.13604 | 46° | 15km/h | 22345m | -20.2m/s | -53.1°C | 0% | 0hPa | 0V | 00:00:00 | 00:00:00 | 00:00:00 | |
| WB7NNF | 2026-09-03 18:56:00 | 48.14322 | -117.13640 | 303° | 15km/h | 22751m | -20.5m/s | -53.4°C | 0% | 0hPa | 0V | 00:00:00 | 00:00:00 | 00:00:00 | |
| WB7NNF | 2026-09-03 18:55:40 | 48.14250 | -117.13606 | 337° | 27km/h | 23203m | -20.3m/s | -51.4°C | 0% | 0hPa | 0V | 00:00:00 | 00:00:00 | 00:00:00 | |
| WB7NNF | 2026-09-03 18:55:19 | 48.14123 | -117.13609 | 28° | 26km/h | 23636m | -21.6m/s | -52.9°C | 0% | 0hPa | 0V | 00:00:00 | 00:00:00 | 00:00:00 | |
| WB7NNF | 2026-09-03 18:54:59 | 48.14067 | -117.13587 | 5° | 7km/h | 24107m | -23.0m/s | -51.5°C | 0% | 0hPa | 0V | 00:00:00 | 00:00:00 | 00:00:00 | |
| WB7NNF | 2026-09-03 18:54:38 | 48.14057 | -117.13476 | 280° | 9km/h | 24582m | -24.2m/s | -51.2°C | 0% | 0hPa | 0V | 00:00:00 | 00:00:00 | 00:00:00 | |
| WB7NNF | 2026-09-03 18:54:18 | 48.14086 | -117.13463 | 178° | 20km/h | 25104m | -25.8m/s | -49.0°C | 0% | 0hPa | 0V | 00:00:00 | 00:00:00 | 00:00:00 | |
| WB7NNF | 2026-09-03 18:53:57 | 48.14179 | -117.13357 | 246° | 26km/h | 25606m | -26.6m/s | -49.2°C | 0% | 0hPa | 0V | 00:00:00 | 00:00:00 | 00:00:00 | |
| WB7NNF | 2026-09-03 18:53:35 | 48.14191 | -117.13168 | 270° | 4km/h | 26201m | -26.1m/s | -49.6°C | 0% | 0hPa | 0V | 00:00:00 | 00:00:00 | 00:00:00 | |
| WB7NNF | 2026-09-03 18:53:14 | 48.14212 | -117.13136 | 261° | 22km/h | 26743m | -28.5m/s | -49.1°C | 0% | 0hPa | 0V | 00:00:00 | 00:00:00 | 00:00:00 | |
| WB7NNF | 2026-09-03 18:52:54 | 48.14195 | -117.12910 | 323° | 26km/h | 27484m | -41.0m/s | -50.0°C | 0% | 0hPa | 0V | 00:00:00 | 00:00:00 | 00:00:00 | |
| WB7NNF | 2026-09-03 18:52:30 | 48.14083 | -117.12898 | 28° | 18km/h | 28386m | -36.8m/s | -46.9°C | 0% | 0hPa | 0V | 00:00:00 | 00:00:00 | 00:00:00 | |
| WB7NNF | 2026-09-03 18:51:50 | 48.14049 | -117.13010 | 131° | 11km/h | 29880m | -37.7m/s | -45.6°C | 0% | 0hPa | 0V | 00:00:00 | 00:00:00 | 00:00:00 | |
| WB7NNF | 2026-09-03 18:51:30 | 48.14074 | -117.13030 | 287° | 5km/h | 30695m | -39.9m/s | -43.9°C | 0% | 0hPa | 0V | 00:00:00 | 00:00:00 | 00:00:00 | |
| WB7NNF | 2026-09-03 18:51:09 | 48.14084 | -117.13058 | 154° | 9km/h | 31539m | -47.1m/s | -41.4°C | 0% | 0hPa | 0V | 00:00:00 | 00:00:00 | 00:00:00 | |
| WB7NNF | 2026-09-03 18:50:49 | 48.14124 | -117.13053 | 185° | 49km/h | 31749m | 3.3m/s | -41.5°C | 0% | 0hPa | 0V | 00:00:00 | 00:00:00 | 00:00:00 | |
| WB7NNF | 2026-09-03 18:50:28 | 48.14184 | -117.13065 | 55° | 20km/h | 31609m | 10.7m/s | -41.3°C | 0% | 0hPa | 0V | 00:00:00 | 00:00:00 | 00:00:00 | |
| WB7NNF | 2026-09-03 18:50:08 | 48.14191 | -117.13132 | 325° | 11km/h | 31468m | 4.9m/s | -41.3°C | 0% | 0hPa | 0V | 00:00:00 | 00:00:00 | 00:00:00 | |
| WB7NNF | 2026-09-03 18:49:47 | 48.14223 | -117.13190 | 163° | 31km/h | 31329m | 3.0m/s | -41.0°C | 0% | 0hPa | 0V | 00:00:00 | 00:00:00 | 00:00:00 | |
| WB7NNF | 2026-09-03 18:49:27 | 48.14174 | -117.13268 | 251° | 44km/h | 31187m | 1.9m/s | -41.9°C | 0% | 0hPa | 0V | 00:00:00 | 00:00:00 | 00:00:00 | |
| WB7NNF | 2026-09-03 18:49:06 | 48.14147 | -117.13313 | 10° | 26km/h | 31050m | 7.0m/s | -42.4°C | 0% | 0hPa | 0V | 00:00:00 | 00:00:00 | 00:00:00 | |
| WB7NNF | 2026-09-03 18:48:44 | 48.14120 | -117.13264 | 245° | 57km/h | 30922m | 4.9m/s | -43.4°C | 0% | 0hPa | 0V | 00:00:00 | 00:00:00 | 00:00:00 | |
| WB7NNF | 2026-09-03 18:48:21 | 48.14134 | -117.13260 | 172° | 15km/h | 30783m | 1.8m/s | -43.7°C | 0% | 0hPa | 0V | 00:00:00 | 00:00:00 | 00:00:00 | |
| WB7NNF | 2026-09-03 18:48:01 | 48.14116 | -117.13226 | 8° | 27km/h | 30647m | -0.3m/s | -44.1°C | 0% | 0hPa | 0V | 00:00:00 | 00:00:00 | 00:00:00 | |
| WB7NNF | 2026-09-03 18:47:40 | 48.14136 | -117.13220 | 253° | 38km/h | 30521m | -0.4m/s | -44.0°C | 0% | 0hPa | 0V | 00:00:00 | 00:00:00 | 00:00:00 | |
| WB7NNF | 2026-09-03 18:47:18 | 48.14189 | -117.13299 | 151° | 37km/h | 30373m | 7.0m/s | -44.3°C | 0% | 0hPa | 0V | 00:00:00 | 00:00:00 | 00:00:00 | |
| WB7NNF | 2026-09-03 18:46:57 | 48.14177 | -117.13308 | 235° | 47km/h | 30235m | 2.3m/s | -45.0°C | 0% | 0hPa | 0V | 00:00:00 | 00:00:00 | 00:00:00 | |
| WB7NNF | 2026-09-03 18:46:37 | 48.14202 | -117.13342 | 299° | 37km/h | 30090m | 3.8m/s | -45.3°C | 0% | 0hPa | 0V | 00:00:00 | 00:00:00 | 00:00:00 | |
| WB7NNF | 2026-09-03 18:46:16 | 48.14243 | -117.13412 | 334° | 26km/h | 29956m | 8.8m/s | -45.6°C | 0% | 0hPa | 0V | 00:00:00 | 00:00:00 | 00:00:00 | |
| WB7NNF | 2026-09-03 18:45:54 | 48.14304 | -117.13518 | 46° | 20km/h | 29804m | 6.5m/s | -45.6°C | 0% | 0hPa | 0V | 00:00:00 | 00:00:00 | 00:00:00 | |
| WB7NNF | 2026-09-03 18:45:34 | 48.14315 | -117.13619 | 65° | 51km/h | 29661m | 1.1m/s | -45.7°C | 0% | 0hPa | 0V | 00:00:00 | 00:00:00 | 00:00:00 | |
| WB7NNF | 2026-09-03 18:45:13 | 48.14268 | -117.13667 | 29° | 58km/h | 29516m | 1.3m/s | -45.7°C | 0% | 0hPa | 0V | 00:00:00 | 00:00:00 | 00:00:00 | |
| WB7NNF | 2026-09-03 18:44:51 | 48.14231 | -117.13634 | 317° | 35km/h | 29378m | 4.8m/s | -45.9°C | 0% | 0hPa | 0V | 00:00:00 | 00:00:00 | 00:00:00 | |
| WB7NNF | 2026-09-03 18:44:28 | 48.14266 | -117.13680 | 205° | 33km/h | 29211m | 3.2m/s | -45.5°C | 0% | 0hPa | 0V | 00:00:00 | 00:00:00 | 00:00:00 | |
| WB7NNF | 2026-09-03 18:44:06 | 48.14256 | -117.13811 | 280° | 44km/h | 29079m | 4.8m/s | -45.7°C | 0% | 0hPa | 0V | 00:00:00 | 00:00:00 | 00:00:00 | |
| WB7NNF | 2026-09-03 18:43:43 | 48.14209 | -117.13885 | 331° | 40km/h | 28929m | 7.4m/s | -45.4°C | 0% | 0hPa | 0V | 00:00:00 | 00:00:00 | 00:00:00 | |
| WB7NNF | 2026-09-03 18:43:22 | 48.14127 | -117.13856 | 309° | 47km/h | 28801m | 3.3m/s | -45.4°C | 0% | 0hPa | 0V | 00:00:00 | 00:00:00 | 00:00:00 | |
| WB7NNF | 2026-09-03 18:42:41 | 48.13979 | -117.13834 | 15° | 44km/h | 28525m | 3.0m/s | -46.9°C | 0% | 0hPa | 0V | 00:00:00 | 00:00:00 | 00:00:00 | |
| WB7NNF | 2026-09-03 18:42:00 | 48.13830 | -117.14023 | 17° | 53km/h | 28261m | 8.5m/s | -47.9°C | 0% | 0hPa | 0V | 00:00:00 | 00:00:00 | 00:00:00 | |
| WB7NNF | 2026-09-03 18:41:40 | 48.13760 | -117.14066 | 315° | 62km/h | 28118m | 4.5m/s | -48.5°C | 0% | 0hPa | 0V | 00:00:00 | 00:00:00 | 00:00:00 | |
| WB7NNF | 2026-09-03 18:41:18 | 48.13689 | -117.13966 | 270° | 66km/h | 27977m | 6.6m/s | -48.8°C | 0% | 0hPa | 0V | 00:00:00 | 00:00:00 | 00:00:00 | |
| WB7NNF | 2026-09-03 18:40:55 | 48.13606 | -117.13791 | 338° | 68km/h | 27819m | 6.9m/s | -49.1°C | 0% | 0hPa | 0V | 00:00:00 | 00:00:00 | 00:00:00 | |
| WB7NNF | 2026-09-03 18:40:35 | 48.13523 | -117.13669 | 342° | 64km/h | 27692m | 4.5m/s | -49.1°C | 0% | 0hPa | 0V | 00:00:00 | 00:00:00 | 00:00:00 | |
| WB7NNF | 2026-09-03 18:40:14 | 48.13424 | -117.13570 | 341° | 62km/h | 27560m | 10.8m/s | -49.8°C | 0% | 0hPa | 0V | 00:00:00 | 00:00:00 | 00:00:00 | |
| WB7NNF | 2026-09-03 18:39:52 | 48.13346 | -117.13364 | 264° | 64km/h | 27420m | 12.0m/s | -49.5°C | 0% | 0hPa | 0V | 00:00:00 | 00:00:00 | 00:00:00 | |
| WB7NNF | 2026-09-03 18:39:31 | 48.13352 | -117.13073 | 219° | 51km/h | 27286m | 1.7m/s | -49.7°C | 0% | 0hPa | 0V | 00:00:00 | 00:00:00 | 00:00:00 | |
| WB7NNF | 2026-09-03 18:39:07 | 48.13398 | -117.12681 | 196° | 46km/h | 27124m | 3.2m/s | -49.2°C | 0% | 0hPa | 0V | 00:00:00 | 00:00:00 | 00:00:00 | |
| WB7NNF | 2026-09-03 18:38:45 | 48.13447 | -117.12431 | 174° | 46km/h | 26994m | 3.6m/s | -48.7°C | 0% | 0hPa | 0V | 00:00:00 | 00:00:00 | 00:00:00 | |
| WB7NNF | 2026-09-03 18:38:25 | 48.13516 | -117.12219 | 142° | 57km/h | 26870m | 2.9m/s | -48.5°C | 0% | 0hPa | 0V | 00:00:00 | 00:00:00 | 00:00:00 | |
| WB7NNF | 2026-09-03 18:38:03 | 48.13556 | -117.12047 | 355° | 13km/h | 26729m | 9.4m/s | -48.8°C | 0% | 0hPa | 0V | 00:00:00 | 00:00:00 | 00:00:00 | |
| WB7NNF | 2026-09-03 18:37:43 | 48.13612 | -117.11923 | 297° | 31km/h | 26590m | 10.7m/s | -49.1°C | 0% | 0hPa | 0V | 00:00:00 | 00:00:00 | 00:00:00 | |
| WB7NNF | 2026-09-03 18:37:22 | 48.13691 | -117.11838 | 120° | 42km/h | 26438m | 7.6m/s | -48.4°C | 0% | 0hPa | 0V | 00:00:00 | 00:00:00 | 00:00:00 | |
| WB7NNF | 2026-09-03 18:37:01 | 48.13703 | -117.11825 | 102° | 40km/h | 26316m | 7.2m/s | -48.7°C | 0% | 0hPa | 0V | 00:00:00 | 00:00:00 | 00:00:00 | |
| WB7NNF | 2026-09-03 18:36:39 | 48.13662 | -117.11832 | 6° | 57km/h | 26173m | 7.7m/s | -49.0°C | 0% | 0hPa | 0V | 00:00:00 | 00:00:00 | 00:00:00 | |
| WB7NNF | 2026-09-03 18:36:19 | 48.13617 | -117.11719 | 309° | 69km/h | 26042m | 4.3m/s | -49.4°C | 0% | 0hPa | 0V | 00:00:00 | 00:00:00 | 00:00:00 | |
| WB7NNF | 2026-09-03 18:35:58 | 48.13574 | -117.11511 | 281° | 68km/h | 25915m | 4.6m/s | -50.2°C | 0% | 0hPa | 0V | 00:00:00 | 00:00:00 | 00:00:00 | |
| WB7NNF | 2026-09-03 18:35:38 | 48.13587 | -117.11309 | 255° | 68km/h | 25764m | 9.4m/s | -49.7°C | 0% | 0hPa | 0V | 00:00:00 | 00:00:00 | 00:00:00 | |
| WB7NNF | 2026-09-03 18:35:17 | 48.13665 | -117.11114 | 151° | 29km/h | 25627m | 8.1m/s | -48.9°C | 0% | 0hPa | 0V | 00:00:00 | 00:00:00 | 00:00:00 | |
| WB7NNF | 2026-09-03 18:34:36 | 48.13818 | -117.10901 | 273° | 29km/h | 25365m | 4.8m/s | -49.0°C | 0% | 0hPa | 0V | 00:00:00 | 00:00:00 | 00:00:00 | |
| WB7NNF | 2026-09-03 18:34:14 | 48.13899 | -117.10866 | 151° | 47km/h | 25227m | 1.8m/s | -49.4°C | 0% | 0hPa | 0V | 00:00:00 | 00:00:00 | 00:00:00 | |
| WB7NNF | 2026-09-03 18:33:33 | 48.14008 | -117.10945 | 104° | 40km/h | 24990m | 5.0m/s | -50.0°C | 0% | 0hPa | 0V | 00:00:00 | 00:00:00 | 00:00:00 | |
| WB7NNF | 2026-09-03 18:33:12 | 48.13985 | -117.11022 | 64° | 44km/h | 24876m | 3.5m/s | -51.5°C | 0% | 0hPa | 0V | 00:00:00 | 00:00:00 | 00:00:00 | |
| WB7NNF | 2026-09-03 18:32:52 | 48.13953 | -117.11072 | 311° | 33km/h | 24753m | 9.8m/s | -52.3°C | 0% | 0hPa | 0V | 00:00:00 | 00:00:00 | 00:00:00 | |
| WB7NNF | 2026-09-03 18:32:31 | 48.13921 | -117.11049 | 11° | 20km/h | 24644m | 5.8m/s | -51.9°C | 0% | 0hPa | 0V | 00:00:00 | 00:00:00 | 00:00:00 | |
| WB7NNF | 2026-09-03 18:32:11 | 48.13916 | -117.10948 | 267° | 35km/h | 24518m | -2.3m/s | -52.1°C | 0% | 0hPa | 0V | 00:00:00 | 00:00:00 | 00:00:00 | |
| WB7NNF | 2026-09-03 18:31:29 | 48.13861 | -117.10858 | 39° | 5km/h | 24258m | 5.4m/s | -52.1°C | 0% | 0hPa | 0V | 00:00:00 | 00:00:00 | 00:00:00 | |
| WB7NNF | 2026-09-03 18:31:09 | 48.13800 | -117.10847 | 45° | 24km/h | 24127m | 10.4m/s | -52.2°C | 0% | 0hPa | 0V | 00:00:00 | 00:00:00 | 00:00:00 | |
| WB7NNF | 2026-09-03 18:30:48 | 48.13736 | -117.10799 | 37° | 29km/h | 24005m | 6.9m/s | -52.0°C | 0% | 0hPa | 0V | 00:00:00 | 00:00:00 | 00:00:00 | |
| WB7NNF | 2026-09-03 18:30:28 | 48.13715 | -117.10799 | 120° | 46km/h | 23877m | 4.9m/s | -52.1°C | 0% | 0hPa | 0V | 00:00:00 | 00:00:00 | 00:00:00 | |
| WB7NNF | 2026-09-03 18:30:07 | 48.13733 | -117.10886 | 107° | 26km/h | 23757m | 4.7m/s | -52.6°C | 0% | 0hPa | 0V | 00:00:00 | 00:00:00 | 00:00:00 | |
| WB7NNF | 2026-09-03 18:29:47 | 48.13682 | -117.11031 | 301° | 18km/h | 23637m | 7.5m/s | -52.8°C | 0% | 0hPa | 0V | 00:00:00 | 00:00:00 | 00:00:00 | |
| WB7NNF | 2026-09-03 18:29:26 | 48.13577 | -117.11108 | 28° | 11km/h | 23519m | 6.1m/s | -52.7°C | 0% | 0hPa | 0V | 00:00:00 | 00:00:00 | 00:00:00 | |
| WB7NNF | 2026-09-03 18:29:06 | 48.13435 | -117.11130 | 66° | 20km/h | 23388m | 9.3m/s | -52.1°C | 0% | 0hPa | 0V | 00:00:00 | 00:00:00 | 00:00:00 | |
| WB7NNF | 2026-09-03 18:28:45 | 48.13325 | -117.11104 | 348° | 18km/h | 23270m | 7.8m/s | -51.4°C | 0% | 0hPa | 0V | 00:00:00 | 00:00:00 | 00:00:00 | |
| WB7NNF | 2026-09-03 18:28:25 | 48.13285 | -117.11104 | 46° | 5km/h | 23136m | 7.4m/s | -52.3°C | 0% | 0hPa | 0V | 00:00:00 | 00:00:00 | 00:00:00 | |
| WB7NNF | 2026-09-03 18:28:04 | 48.13246 | -117.11104 | 303° | 22km/h | 23021m | 5.8m/s | -53.4°C | 0% | 0hPa | 0V | 00:00:00 | 00:00:00 | 00:00:00 | |
| WB7NNF | 2026-09-03 18:27:44 | 48.13177 | -117.11024 | 287° | 15km/h | 22893m | 6.9m/s | -53.7°C | 0% | 0hPa | 0V | 00:00:00 | 00:00:00 | 00:00:00 | |
| WB7NNF | 2026-09-03 18:27:23 | 48.13153 | -117.10894 | 245° | 40km/h | 22771m | 4.5m/s | -53.2°C | 0% | 0hPa | 0V | 00:00:00 | 00:00:00 | 00:00:00 | |
| WB7NNF | 2026-09-03 18:26:42 | 48.13097 | -117.10835 | 313° | 27km/h | 22538m | -0.7m/s | -52.5°C | 0% | 0hPa | 0V | 00:00:00 | 00:00:00 | 00:00:00 | |
| WB7NNF | 2026-09-03 18:26:22 | 48.13023 | -117.10841 | 39° | 18km/h | 22426m | 8.8m/s | -53.9°C | 0% | 0hPa | 0V | 00:00:00 | 00:00:00 | 00:00:00 | |
| WB7NNF | 2026-09-03 18:26:01 | 48.13002 | -117.10877 | 360° | 7km/h | 22309m | 3.4m/s | -53.9°C | 0% | 0hPa | 0V | 00:00:00 | 00:00:00 | 00:00:00 | |
| WB7NNF | 2026-09-03 18:25:40 | 48.12995 | -117.10843 | 288° | 9km/h | 22195m | 6.5m/s | -54.2°C | 0% | 0hPa | 0V | 00:00:00 | 00:00:00 | 00:00:00 | |
| WB7NNF | 2026-09-03 18:25:20 | 48.12998 | -117.10812 | 243° | 20km/h | 22079m | 3.6m/s | -53.8°C | 0% | 0hPa | 0V | 00:00:00 | 00:00:00 | 00:00:00 | |
| WB7NNF | 2026-09-03 18:24:59 | 48.12966 | -117.10799 | 62° | 29km/h | 21966m | 3.0m/s | -54.4°C | 0% | 0hPa | 0V | 00:00:00 | 00:00:00 | 00:00:00 | |
| WB7NNF | 2026-09-03 18:24:39 | 48.12960 | -117.10751 | 242° | 47km/h | 21843m | 4.3m/s | -54.3°C | 0% | 0hPa | 0V | 00:00:00 | 00:00:00 | 00:00:00 | |
| WB7NNF | 2026-09-03 18:24:18 | 48.12958 | -117.10703 | 182° | 5km/h | 21739m | 6.4m/s | -53.7°C | 0% | 0hPa | 0V | 00:00:00 | 00:00:00 | 00:00:00 | |
| WB7NNF | 2026-09-03 18:23:58 | 48.12955 | -117.10683 | 218° | 7km/h | 21631m | 5.9m/s | -53.0°C | 0% | 0hPa | 0V | 00:00:00 | 00:00:00 | 00:00:00 | |
| WB7NNF | 2026-09-03 18:23:37 | 48.12949 | -117.10674 | 275° | 13km/h | 21525m | 4.4m/s | -53.3°C | 0% | 0hPa | 0V | 00:00:00 | 00:00:00 | 00:00:00 | |
| WB7NNF | 2026-09-03 18:23:17 | 48.12926 | -117.10675 | 313° | 13km/h | 21409m | 5.6m/s | -52.8°C | 0% | 0hPa | 0V | 00:00:00 | 00:00:00 | 00:00:00 | |
| WB7NNF | 2026-09-03 18:22:56 | 48.12915 | -117.10641 | 315° | 24km/h | 21299m | 8.7m/s | -52.9°C | 0% | 0hPa | 0V | 00:00:00 | 00:00:00 | 00:00:00 | |
| WB7NNF | 2026-09-03 18:22:36 | 48.12876 | -117.10535 | 348° | 33km/h | 21186m | 6.2m/s | -52.4°C | 0% | 0hPa | 0V | 00:00:00 | 00:00:00 | 00:00:00 | |
| WB7NNF | 2026-09-03 18:22:15 | 48.12868 | -117.10469 | 178° | 20km/h | 21073m | 7.8m/s | -52.0°C | 0% | 0hPa | 0V | 00:00:00 | 00:00:00 | 00:00:00 | |
| WB7NNF | 2026-09-03 18:21:55 | 48.12889 | -117.10433 | 290° | 24km/h | 20959m | 3.1m/s | -52.3°C | 0% | 0hPa | 0V | 00:00:00 | 00:00:00 | 00:00:00 | |
| WB7NNF | 2026-09-03 18:21:34 | 48.12901 | -117.10327 | 204° | 20km/h | 20844m | 7.4m/s | -51.8°C | 0% | 0hPa | 0V | 00:00:00 | 00:00:00 | 00:00:00 | |
| WB7NNF | 2026-09-03 18:21:14 | 48.12841 | -117.10142 | 312° | 40km/h | 20717m | 6.2m/s | -52.1°C | 0% | 0hPa | 0V | 00:00:00 | 00:00:00 | 00:00:00 | |
| WB7NNF | 2026-09-03 18:20:53 | 48.12776 | -117.09923 | 279° | 38km/h | 20605m | 7.2m/s | -51.7°C | 0% | 0hPa | 0V | 00:00:00 | 00:00:00 | 00:00:00 | |
| WB7NNF | 2026-09-03 18:20:32 | 48.12729 | -117.09787 | 3° | 11km/h | 20483m | 4.8m/s | -52.1°C | 0% | 0hPa | 0V | 00:00:00 | 00:00:00 | 00:00:00 | |
| WB7NNF | 2026-09-03 18:20:12 | 48.12706 | -117.09743 | 308° | 20km/h | 20365m | 3.7m/s | -52.2°C | 0% | 0hPa | 0V | 00:00:00 | 00:00:00 | 00:00:00 | |
| WB7NNF | 2026-09-03 18:19:50 | 48.12691 | -117.09683 | 250° | 22km/h | 20242m | 4.8m/s | -52.2°C | 0% | 0hPa | 0V | 00:00:00 | 00:00:00 | 00:00:00 | |
| WB7NNF | 2026-09-03 18:19:29 | 48.12678 | -117.09641 | 146° | 15km/h | 20132m | 2.3m/s | -52.0°C | 0% | 0hPa | 0V | 00:00:00 | 00:00:00 | 00:00:00 | |
| WB7NNF | 2026-09-03 18:19:08 | 48.12695 | -117.09595 | 239° | 38km/h | 20015m | 6.6m/s | -51.6°C | 0% | 0hPa | 0V | 00:00:00 | 00:00:00 | 00:00:00 | |
| WB7NNF | 2026-09-03 18:18:48 | 48.12719 | -117.09530 | 334° | 15km/h | 19898m | 8.9m/s | -50.7°C | 0% | 0hPa | 0V | 00:00:00 | 00:00:00 | 00:00:00 | |
| WB7NNF | 2026-09-03 18:18:27 | 48.12764 | -117.09549 | 65° | 29km/h | 19773m | 5.5m/s | -49.8°C | 0% | 0hPa | 0V | 00:00:00 | 00:00:00 | 00:00:00 | |
| WB7NNF | 2026-09-03 18:18:07 | 48.12794 | -117.09614 | 142° | 11km/h | 19663m | 4.2m/s | -49.1°C | 0% | 0hPa | 0V | 00:00:00 | 00:00:00 | 00:00:00 | |
| WB7NNF | 2026-09-03 18:17:46 | 48.12808 | -117.09730 | 84° | 38km/h | 19540m | 6.6m/s | -50.2°C | 0% | 0hPa | 0V | 00:00:00 | 00:00:00 | 00:00:00 | |
| WB7NNF | 2026-09-03 18:17:26 | 48.12754 | -117.09967 | 42° | 29km/h | 19435m | 8.0m/s | -50.5°C | 0% | 0hPa | 0V | 00:00:00 | 00:00:00 | 00:00:00 | |
| WB7NNF | 2026-09-03 18:17:05 | 48.12662 | -117.10182 | 49° | 38km/h | 19335m | 4.8m/s | -50.8°C | 0% | 0hPa | 0V | 00:00:00 | 00:00:00 | 00:00:00 | |
| WB7NNF | 2026-09-03 18:16:45 | 48.12513 | -117.10419 | 36° | 49km/h | 19231m | 6.3m/s | -51.7°C | 0% | 0hPa | 0V | 00:00:00 | 00:00:00 | 00:00:00 | |
| WB7NNF | 2026-09-03 18:16:24 | 48.12344 | -117.10574 | 19° | 38km/h | 19134m | 4.7m/s | -51.3°C | 0% | 0hPa | 0V | 00:00:00 | 00:00:00 | 00:00:00 | |
| WB7NNF | 2026-09-03 18:16:04 | 48.12217 | -117.10737 | 17° | 26km/h | 19020m | 7.0m/s | -50.5°C | 0% | 0hPa | 0V | 00:00:00 | 00:00:00 | 00:00:00 | |
| WB7NNF | 2026-09-03 18:15:43 | 48.12123 | -117.10854 | 74° | 16km/h | 18922m | 6.5m/s | -50.3°C | 0% | 0hPa | 0V | 00:00:00 | 00:00:00 | 00:00:00 | |
| WB7NNF | 2026-09-03 18:15:23 | 48.12067 | -117.10998 | 41° | 27km/h | 18806m | 5.7m/s | -49.9°C | 0% | 0hPa | 0V | 00:00:00 | 00:00:00 | 00:00:00 | |
| WB7NNF | 2026-09-03 18:14:42 | 48.11932 | -117.11353 | 58° | 29km/h | 18591m | 7.2m/s | -49.6°C | 0% | 0hPa | 0V | 00:00:00 | 00:00:00 | 00:00:00 | |
| WB7NNF | 2026-09-03 18:14:21 | 48.11764 | -117.11551 | 36° | 46km/h | 18471m | 6.5m/s | -49.7°C | 0% | 0hPa | 0V | 00:00:00 | 00:00:00 | 00:00:00 | |
| WB7NNF | 2026-09-03 18:14:00 | 48.11555 | -117.11719 | 26° | 49km/h | 18362m | 6.3m/s | -49.4°C | 0% | 0hPa | 0V | 00:00:00 | 00:00:00 | 00:00:00 | |
| WB7NNF | 2026-09-03 18:13:40 | 48.11326 | -117.11780 | 25° | 47km/h | 18248m | 5.3m/s | -49.1°C | 0% | 0hPa | 0V | 00:00:00 | 00:00:00 | 00:00:00 | |
| WB7NNF | 2026-09-03 18:13:19 | 48.11072 | -117.11799 | 17° | 42km/h | 18149m | 5.0m/s | -49.2°C | 0% | 0hPa | 0V | 00:00:00 | 00:00:00 | 00:00:00 | |
| WB7NNF | 2026-09-03 18:12:59 | 48.10814 | -117.11836 | 25° | 51km/h | 18039m | 5.0m/s | -49.7°C | 0% | 0hPa | 0V | 00:00:00 | 00:00:00 | 00:00:00 | |
| WB7NNF | 2026-09-03 18:12:38 | 48.10562 | -117.11871 | 334° | 37km/h | 17934m | 3.7m/s | -50.0°C | 0% | 0hPa | 0V | 00:00:00 | 00:00:00 | 00:00:00 | |
| WB7NNF | 2026-09-03 18:12:18 | 48.10336 | -117.11891 | 44° | 40km/h | 17818m | 7.3m/s | -49.9°C | 0% | 0hPa | 0V | 00:00:00 | 00:00:00 | 00:00:00 | |
| WB7NNF | 2026-09-03 18:11:57 | 48.10198 | -117.11947 | 7° | 22km/h | 17707m | 4.3m/s | -49.9°C | 0% | 0hPa | 0V | 00:00:00 | 00:00:00 | 00:00:00 | |
| WB7NNF | 2026-09-03 18:11:37 | 48.10113 | -117.11996 | 31° | 11km/h | 17598m | 4.2m/s | -49.3°C | 0% | 0hPa | 0V | 00:00:00 | 00:00:00 | 00:00:00 | |
| WB7NNF | 2026-09-03 18:11:16 | 48.10058 | -117.12019 | 305° | 27km/h | 17498m | 2.8m/s | -48.5°C | 0% | 0hPa | 0V | 00:00:00 | 00:00:00 | 00:00:00 | |
| WB7NNF | 2026-09-03 18:10:56 | 48.09968 | -117.12086 | 19° | 35km/h | 17395m | 4.2m/s | -48.6°C | 0% | 0hPa | 0V | 00:00:00 | 00:00:00 | 00:00:00 | |
| WB7NNF | 2026-09-03 18:10:35 | 48.09846 | -117.12186 | 28° | 22km/h | 17306m | 3.7m/s | -48.4°C | 0% | 0hPa | 0V | 00:00:00 | 00:00:00 | 00:00:00 | |
| WB7NNF | 2026-09-03 18:10:15 | 48.09673 | -117.12344 | 22° | 37km/h | 17216m | 4.9m/s | -49.5°C | 0% | 0hPa | 0V | 00:00:00 | 00:00:00 | 00:00:00 | |
| WB7NNF | 2026-09-03 18:09:54 | 48.09507 | -117.12523 | 42° | 37km/h | 17128m | 4.1m/s | -49.6°C | 0% | 0hPa | 0V | 00:00:00 | 00:00:00 | 00:00:00 | |
| WB7NNF | 2026-09-03 18:09:34 | 48.09311 | -117.12680 | 39° | 38km/h | 17039m | 5.1m/s | -49.8°C | 0% | 0hPa | 0V | 00:00:00 | 00:00:00 | 00:00:00 | |
| WB7NNF | 2026-09-03 18:09:13 | 48.09083 | -117.12791 | 34° | 38km/h | 16937m | 6.3m/s | -50.2°C | 0% | 0hPa | 0V | 00:00:00 | 00:00:00 | 00:00:00 | |
| WB7NNF | 2026-09-03 18:08:52 | 48.08889 | -117.12860 | 3° | 53km/h | 16837m | 6.4m/s | -51.5°C | 0% | 0hPa | 0V | 00:00:00 | 00:00:00 | 00:00:00 | |
| WB7NNF | 2026-09-03 18:08:32 | 48.08690 | -117.12879 | 16° | 42km/h | 16722m | 7.1m/s | -51.6°C | 0% | 0hPa | 0V | 00:00:00 | 00:00:00 | 00:00:00 | |
| WB7NNF | 2026-09-03 18:08:12 | 48.08499 | -117.12910 | 10° | 26km/h | 16615m | 3.7m/s | -51.3°C | 0% | 0hPa | 0V | 00:00:00 | 00:00:00 | 00:00:00 | |
| WB7NNF | 2026-09-03 18:07:51 | 48.08329 | -117.12992 | 4° | 27km/h | 16508m | 6.3m/s | -50.6°C | 0% | 0hPa | 0V | 00:00:00 | 00:00:00 | 00:00:00 | |
| WB7NNF | 2026-09-03 18:07:30 | 48.08206 | -117.13081 | 18° | 44km/h | 16403m | 5.8m/s | -49.9°C | 0% | 0hPa | 0V | 00:00:00 | 00:00:00 | 00:00:00 | |
| WB7NNF | 2026-09-03 18:07:10 | 48.08105 | -117.13194 | 49° | 22km/h | 16298m | 5.5m/s | -49.6°C | 0% | 0hPa | 0V | 00:00:00 | 00:00:00 | 00:00:00 | |
| WB7NNF | 2026-09-03 18:06:50 | 48.08039 | -117.13351 | 76° | 24km/h | 16204m | 5.8m/s | -49.6°C | 0% | 0hPa | 0V | 00:00:00 | 00:00:00 | 00:00:00 | |
| WB7NNF | 2026-09-03 18:06:29 | 48.07980 | -117.13534 | 58° | 33km/h | 16106m | 4.2m/s | -48.9°C | 0% | 0hPa | 0V | 00:00:00 | 00:00:00 | 00:00:00 | |
| WB7NNF | 2026-09-03 18:06:08 | 48.07903 | -117.13704 | 60° | 38km/h | 16010m | 3.1m/s | -48.9°C | 0% | 0hPa | 0V | 00:00:00 | 00:00:00 | 00:00:00 | |
| WB7NNF | 2026-09-03 18:05:48 | 48.07803 | -117.13869 | 24° | 40km/h | 15914m | 5.7m/s | -49.8°C | 0% | 0hPa | 0V | 00:00:00 | 00:00:00 | 00:00:00 | |
| WB7NNF | 2026-09-03 18:05:27 | 48.07625 | -117.14082 | 44° | 68km/h | 15822m | 4.4m/s | -50.5°C | 0% | 0hPa | 0V | 00:00:00 | 00:00:00 | 00:00:00 | |
| WB7NNF | 2026-09-03 18:05:07 | 48.07399 | -117.14392 | 32° | 77km/h | 15721m | 6.2m/s | -50.5°C | 0% | 0hPa | 0V | 00:00:00 | 00:00:00 | 00:00:00 | |
| WB7NNF | 2026-09-03 18:04:46 | 48.07141 | -117.14698 | 50° | 51km/h | 15626m | 4.8m/s | -50.3°C | 0% | 0hPa | 0V | 00:00:00 | 00:00:00 | 00:00:00 | |
| WB7NNF | 2026-09-03 18:04:26 | 48.06867 | -117.14975 | 40° | 60km/h | 15520m | 3.7m/s | -50.4°C | 0% | 0hPa | 0V | 00:00:00 | 00:00:00 | 00:00:00 | |
| WB7NNF | 2026-09-03 18:04:05 | 48.06605 | -117.15238 | 39° | 64km/h | 15420m | 5.8m/s | -50.3°C | 0% | 0hPa | 0V | 00:00:00 | 00:00:00 | 00:00:00 | |
| WB7NNF | 2026-09-03 18:03:45 | 48.06367 | -117.15484 | 30° | 64km/h | 15313m | 3.8m/s | -49.9°C | 0% | 0hPa | 0V | 00:00:00 | 00:00:00 | 00:00:00 | |
| WB7NNF | 2026-09-03 18:03:24 | 48.06183 | -117.15691 | 22° | 37km/h | 15206m | 5.7m/s | -49.8°C | 0% | 0hPa | 0V | 00:00:00 | 00:00:00 | 00:00:00 | |
| WB7NNF | 2026-09-03 18:02:43 | 48.05841 | -117.16103 | 30° | 68km/h | 14983m | 4.0m/s | -50.4°C | 0% | 0hPa | 0V | 00:00:00 | 00:00:00 | 00:00:00 | |
| WB7NNF | 2026-09-03 18:02:22 | 48.05632 | -117.16275 | 67° | 44km/h | 14881m | 3.3m/s | -49.9°C | 0% | 0hPa | 0V | 00:00:00 | 00:00:00 | 00:00:00 | |
| WB7NNF | 2026-09-03 18:02:02 | 48.05428 | -117.16465 | 16° | 42km/h | 14776m | 4.0m/s | -50.0°C | 0% | 0hPa | 0V | 00:00:00 | 00:00:00 | 00:00:00 | |
| WB7NNF | 2026-09-03 18:01:41 | 48.05243 | -117.16608 | 23° | 38km/h | 14679m | 5.9m/s | -49.3°C | 0% | 0hPa | 0V | 00:00:00 | 00:00:00 | 00:00:00 | |
| WB7NNF | 2026-09-03 18:01:21 | 48.05056 | -117.16766 | 38° | 62km/h | 14576m | 4.5m/s | -48.8°C | 0% | 0hPa | 0V | 00:00:00 | 00:00:00 | 00:00:00 | |
| WB7NNF | 2026-09-03 18:01:00 | 48.04875 | -117.16953 | 30° | 49km/h | 14477m | 3.5m/s | -48.9°C | 0% | 0hPa | 0V | 00:00:00 | 00:00:00 | 00:00:00 | |
| WB7NNF | 2026-09-03 18:00:40 | 48.04621 | -117.17168 | 29° | 60km/h | 14390m | 5.1m/s | -48.6°C | 0% | 0hPa | 0V | 00:00:00 | 00:00:00 | 00:00:00 | |
| WB7NNF | 2026-09-03 18:00:19 | 48.04392 | -117.17327 | 38° | 38km/h | 14305m | 4.6m/s | -48.3°C | 0% | 0hPa | 0V | 00:00:00 | 00:00:00 | 00:00:00 | |
| WB7NNF | 2026-09-03 17:59:59 | 48.04146 | -117.17509 | 14° | 49km/h | 14221m | 4.2m/s | -48.0°C | 0% | 0hPa | 0V | 00:00:00 | 00:00:00 | 00:00:00 | |
| WB7NNF | 2026-09-03 17:59:38 | 48.03913 | -117.17693 | 12° | 62km/h | 14136m | 3.4m/s | -48.0°C | 0% | 0hPa | 0V | 00:00:00 | 00:00:00 | 00:00:00 | |
| WB7NNF | 2026-09-03 17:59:18 | 48.03684 | -117.17863 | 37° | 51km/h | 14049m | 4.9m/s | -47.7°C | 0% | 0hPa | 0V | 00:00:00 | 00:00:00 | 00:00:00 | |
| WB7NNF | 2026-09-03 17:58:57 | 48.03486 | -117.18053 | 35° | 58km/h | 13961m | 5.0m/s | -47.1°C | 0% | 0hPa | 0V | 00:00:00 | 00:00:00 | 00:00:00 | |
| WB7NNF | 2026-09-03 17:58:37 | 48.03272 | -117.18292 | 37° | 55km/h | 13871m | 5.3m/s | -47.2°C | 0% | 0hPa | 0V | 00:00:00 | 00:00:00 | 00:00:00 | |
| WB7NNF | 2026-09-03 17:58:16 | 48.03024 | -117.18562 | 39° | 78km/h | 13778m | 4.4m/s | -47.4°C | 0% | 0hPa | 0V | 00:00:00 | 00:00:00 | 00:00:00 | |
| WB7NNF | 2026-09-03 17:57:55 | 48.02782 | -117.18836 | 51° | 49km/h | 13686m | 3.4m/s | -46.9°C | 0% | 0hPa | 0V | 00:00:00 | 00:00:00 | 00:00:00 | |
| WB7NNF | 2026-09-03 17:57:35 | 48.02553 | -117.19094 | 44° | 53km/h | 13584m | 3.6m/s | -46.7°C | 0% | 0hPa | 0V | 00:00:00 | 00:00:00 | 00:00:00 | |
| WB7NNF | 2026-09-03 17:56:54 | 48.02065 | -117.19575 | 35° | 58km/h | 13383m | 6.2m/s | -47.3°C | 0% | 0hPa | 0V | 00:00:00 | 00:00:00 | 00:00:00 | |
| WB7NNF | 2026-09-03 17:56:34 | 48.01847 | -117.19868 | 36° | 58km/h | 13281m | 5.5m/s | -47.4°C | 0% | 0hPa | 0V | 00:00:00 | 00:00:00 | 00:00:00 | |
| WB7NNF | 2026-09-03 17:56:13 | 48.01628 | -117.20174 | 40° | 49km/h | 13182m | 5.8m/s | -47.0°C | 0% | 0hPa | 0V | 00:00:00 | 00:00:00 | 00:00:00 | |
| WB7NNF | 2026-09-03 17:55:32 | 48.01219 | -117.20818 | 52° | 78km/h | 12988m | 2.8m/s | -46.9°C | 0% | 0hPa | 0V | 00:00:00 | 00:00:00 | 00:00:00 | |
| WB7NNF | 2026-09-03 17:55:11 | 48.01006 | -117.21148 | 42° | 69km/h | 12899m | 5.5m/s | -46.4°C | 0% | 0hPa | 0V | 00:00:00 | 00:00:00 | 00:00:00 | |
| WB7NNF | 2026-09-03 17:54:51 | 48.00764 | -117.21465 | 46° | 73km/h | 12808m | 2.8m/s | -46.2°C | 0% | 0hPa | 0V | 00:00:00 | 00:00:00 | 00:00:00 | |
| WB7NNF | 2026-09-03 17:54:30 | 48.00535 | -117.21765 | 34° | 62km/h | 12726m | 4.7m/s | -46.3°C | 0% | 0hPa | 0V | 00:00:00 | 00:00:00 | 00:00:00 | |
| WB7NNF | 2026-09-03 17:54:10 | 48.00291 | -117.22081 | 48° | 51km/h | 12646m | 2.9m/s | -46.3°C | 0% | 0hPa | 0V | 00:00:00 | 00:00:00 | 00:00:00 | |
| WB7NNF | 2026-09-03 17:53:49 | 48.00058 | -117.22401 | 35° | 47km/h | 12567m | 3.5m/s | -46.1°C | 0% | 0hPa | 0V | 00:00:00 | 00:00:00 | 00:00:00 | |
| WB7NNF | 2026-09-03 17:53:29 | 47.99780 | -117.22703 | 42° | 64km/h | 12487m | 3.0m/s | -46.0°C | 0% | 0hPa | 0V | 00:00:00 | 00:00:00 | 00:00:00 | |
| WB7NNF | 2026-09-03 17:53:08 | 47.99484 | -117.22966 | 30° | 66km/h | 12411m | 4.0m/s | -46.6°C | 0% | 0hPa | 0V | 00:00:00 | 00:00:00 | 00:00:00 | |
| WB7NNF | 2026-09-03 17:52:48 | 47.99187 | -117.23247 | 30° | 60km/h | 12322m | 3.2m/s | -46.3°C | 0% | 0hPa | 0V | 00:00:00 | 00:00:00 | 00:00:00 | |
| WB7NNF | 2026-09-03 17:52:27 | 47.98915 | -117.23547 | 55° | 51km/h | 12234m | 2.0m/s | -45.8°C | 0% | 0hPa | 0V | 00:00:00 | 00:00:00 | 00:00:00 | |
| WB7NNF | 2026-09-03 17:52:05 | 47.98648 | -117.23890 | 39° | 78km/h | 12138m | 9.8m/s | -45.6°C | 0% | 0hPa | 0V | 00:00:00 | 00:00:00 | 00:00:00 | |
| WB7NNF | 2026-09-03 17:51:44 | 47.98377 | -117.24273 | 45° | 68km/h | 12041m | 4.9m/s | -45.6°C | 0% | 0hPa | 0V | 00:00:00 | 00:00:00 | 00:00:00 | |
| WB7NNF | 2026-09-03 17:51:24 | 47.98104 | -117.24622 | 32° | 71km/h | 11950m | 4.9m/s | -45.6°C | 0% | 0hPa | 0V | 00:00:00 | 00:00:00 | 00:00:00 | |
| WB7NNF | 2026-09-03 17:51:03 | 47.97842 | -117.24966 | 48° | 62km/h | 11860m | 3.3m/s | -45.3°C | 0% | 0hPa | 0V | 00:00:00 | 00:00:00 | 00:00:00 | |
| WB7NNF | 2026-09-03 17:50:43 | 47.97573 | -117.25408 | 49° | 82km/h | 11769m | 3.8m/s | -44.8°C | 0% | 0hPa | 0V | 00:00:00 | 00:00:00 | 00:00:00 | |
| WB7NNF | 2026-09-03 17:50:22 | 47.97299 | -117.25848 | 39° | 62km/h | 11676m | 4.3m/s | -44.6°C | 0% | 0hPa | 0V | 00:00:00 | 00:00:00 | 00:00:00 | |
| WB7NNF | 2026-09-03 17:49:41 | 47.96669 | -117.26781 | 54° | 88km/h | 11471m | 3.5m/s | -44.5°C | 0% | 0hPa | 0V | 00:00:00 | 00:00:00 | 00:00:00 | |
| WB7NNF | 2026-09-03 17:49:06 | 47.96054 | -117.27578 | 39° | 108km/h | 11308m | 2.6m/s | -45.0°C | 0% | 0hPa | 0V | 00:00:00 | 00:00:00 | 00:00:00 | |
| WB7NNF | 2026-09-03 17:48:45 | 47.95708 | -117.28069 | 35° | 80km/h | 11199m | 4.7m/s | -45.1°C | 0% | 0hPa | 0V | 00:00:00 | 00:00:00 | 00:00:00 | |
| WB7NNF | 2026-09-03 17:48:24 | 47.95384 | -117.28532 | 50° | 71km/h | 11099m | 4.9m/s | -44.7°C | 0% | 0hPa | 0V | 00:00:00 | 00:00:00 | 00:00:00 | |
| WB7NNF | 2026-09-03 17:48:02 | 47.95046 | -117.28983 | 43° | 77km/h | 11003m | 2.6m/s | -44.6°C | 0% | 0hPa | 0V | 00:00:00 | 00:00:00 | 00:00:00 | |
| WB7NNF | 2026-09-03 17:47:42 | 47.94689 | -117.29454 | 49° | 88km/h | 10906m | 5.8m/s | -45.6°C | 0% | 0hPa | 0V | 00:00:00 | 00:00:00 | 00:00:00 | |
| WB7NNF | 2026-09-03 17:47:21 | 47.94327 | -117.29898 | 37° | 89km/h | 10816m | 3.9m/s | -45.5°C | 0% | 0hPa | 0V | 00:00:00 | 00:00:00 | 00:00:00 | |
| WB7NNF | 2026-09-03 17:47:01 | 47.93932 | -117.30355 | 38° | 108km/h | 10721m | 3.9m/s | -45.7°C | 0% | 0hPa | 0V | 00:00:00 | 00:00:00 | 00:00:00 | |
| WB7NNF | 2026-09-03 17:46:40 | 47.93527 | -117.30858 | 50° | 102km/h | 10631m | 3.8m/s | -46.2°C | 0% | 0hPa | 0V | 00:00:00 | 00:00:00 | 00:00:00 | |
| WB7NNF | 2026-09-03 17:46:18 | 47.93141 | -117.31409 | 46° | 106km/h | 10537m | 4.1m/s | -46.1°C | 0% | 0hPa | 0V | 00:00:00 | 00:00:00 | 00:00:00 | |
| WB7NNF | 2026-09-03 17:45:57 | 47.92739 | -117.32028 | 46° | 110km/h | 10443m | 5.4m/s | -45.8°C | 0% | 0hPa | 0V | 00:00:00 | 00:00:00 | 00:00:00 | |
| WB7NNF | 2026-09-03 17:45:37 | 47.92325 | -117.32627 | 44° | 91km/h | 10350m | 4.3m/s | -46.2°C | 0% | 0hPa | 0V | 00:00:00 | 00:00:00 | 00:00:00 | |
| WB7NNF | 2026-09-03 17:45:16 | 47.91936 | -117.33209 | 50° | 108km/h | 10266m | 3.9m/s | -45.8°C | 0% | 0hPa | 0V | 00:00:00 | 00:00:00 | 00:00:00 | |
| WB7NNF | 2026-09-03 17:44:56 | 47.91491 | -117.33857 | 43° | 119km/h | 10177m | 4.3m/s | -46.2°C | 0% | 0hPa | 0V | 00:00:00 | 00:00:00 | 00:00:00 | |
| WB7NNF | 2026-09-03 17:44:35 | 47.91045 | -117.34508 | 48° | 113km/h | 10091m | 4.7m/s | -45.9°C | 0% | 0hPa | 0V | 00:00:00 | 00:00:00 | 00:00:00 | |
| WB7NNF | 2026-09-03 17:44:14 | 47.90612 | -117.35137 | 48° | 128km/h | 10005m | 4.2m/s | -46.0°C | 0% | 0hPa | 0V | 00:00:00 | 00:00:00 | 00:00:00 | |
| WB7NNF | 2026-09-03 17:43:54 | 47.90135 | -117.35786 | 52° | 124km/h | 9920m | 6.2m/s | -46.0°C | 0% | 0hPa | 0V | 00:00:00 | 00:00:00 | 00:00:00 | |
| WB7NNF | 2026-09-03 17:43:33 | 47.89699 | -117.36442 | 46° | 135km/h | 9832m | 2.0m/s | -45.8°C | 0% | 0hPa | 0V | 00:00:00 | 00:00:00 | 00:00:00 | |
| WB7NNF | 2026-09-03 17:43:13 | 47.89234 | -117.37181 | 52° | 133km/h | 9728m | 7.3m/s | -45.1°C | 0% | 0hPa | 0V | 00:00:00 | 00:00:00 | 00:00:00 | |
| WB7NNF | 2026-09-03 17:42:52 | 47.88737 | -117.37929 | 53° | 144km/h | 9609m | 3.6m/s | -44.2°C | 0% | 0hPa | 0V | 00:00:00 | 00:00:00 | 00:00:00 | |
| WB7NNF | 2026-09-03 17:42:32 | 47.88201 | -117.38743 | 42° | 126km/h | 9514m | 3.8m/s | -44.2°C | 0% | 0hPa | 0V | 00:00:00 | 00:00:00 | 00:00:00 | |
| WB7NNF | 2026-09-03 17:42:11 | 47.87744 | -117.39487 | 47° | 146km/h | 9409m | 4.3m/s | -43.2°C | 0% | 0hPa | 0V | 00:00:00 | 00:00:00 | 00:00:00 | |
| WB7NNF | 2026-09-03 17:41:51 | 47.87274 | -117.40265 | 43° | 146km/h | 9312m | 4.5m/s | -42.8°C | 0% | 0hPa | 0V | 00:00:00 | 00:00:00 | 00:00:00 | |
| WB7NNF | 2026-09-03 17:41:30 | 47.86813 | -117.41022 | 51° | 150km/h | 9224m | 3.6m/s | -42.5°C | 0% | 0hPa | 0V | 00:00:00 | 00:00:00 | 00:00:00 | |
| WB7NNF | 2026-09-03 17:41:10 | 47.86358 | -117.41785 | 50° | 113km/h | 9114m | 5.2m/s | -41.8°C | 0% | 0hPa | 0V | 00:00:00 | 00:00:00 | 00:00:00 | |
| WB7NNF | 2026-09-03 17:40:49 | 47.85972 | -117.42492 | 48° | 128km/h | 8996m | 3.6m/s | -41.0°C | 0% | 0hPa | 0V | 00:00:00 | 00:00:00 | 00:00:00 | |
| WB7NNF | 2026-09-03 17:40:29 | 47.85572 | -117.43149 | 53° | 119km/h | 8893m | 4.9m/s | -40.5°C | 0% | 0hPa | 0V | 00:00:00 | 00:00:00 | 00:00:00 | |
| WB7NNF | 2026-09-03 17:40:08 | 47.85162 | -117.43802 | 54° | 111km/h | 8792m | 6.7m/s | -39.9°C | 0% | 0hPa | 0V | 00:00:00 | 00:00:00 | 00:00:00 | |
| WB7NNF | 2026-09-03 17:39:47 | 47.84765 | -117.44375 | 41° | 108km/h | 8694m | 5.7m/s | -39.4°C | 0% | 0hPa | 0V | 00:00:00 | 00:00:00 | 00:00:00 | |
| WB7NNF | 2026-09-03 17:39:27 | 47.84341 | -117.44907 | 33° | 95km/h | 8593m | 6.9m/s | -39.6°C | 0% | 0hPa | 0V | 00:00:00 | 00:00:00 | 00:00:00 | |
| WB7NNF | 2026-09-03 17:39:06 | 47.83932 | -117.45372 | 41° | 89km/h | 8500m | 4.5m/s | -39.2°C | 0% | 0hPa | 0V | 00:00:00 | 00:00:00 | 00:00:00 | |
| WB7NNF | 2026-09-03 17:38:46 | 47.83509 | -117.45866 | 45° | 100km/h | 8398m | 4.0m/s | -38.6°C | 0% | 0hPa | 0V | 00:00:00 | 00:00:00 | 00:00:00 | |
| WB7NNF | 2026-09-03 17:38:25 | 47.83108 | -117.46323 | 41° | 100km/h | 8292m | 4.2m/s | -37.9°C | 0% | 0hPa | 0V | 00:00:00 | 00:00:00 | 00:00:00 | |
| WB7NNF | 2026-09-03 17:38:05 | 47.82685 | -117.46843 | 36° | 86km/h | 8197m | 5.3m/s | -37.3°C | 0% | 0hPa | 0V | 00:00:00 | 00:00:00 | 00:00:00 | |
| WB7NNF | 2026-09-03 17:37:44 | 47.82297 | -117.47336 | 35° | 100km/h | 8095m | 4.2m/s | -36.4°C | 0% | 0hPa | 0V | 00:00:00 | 00:00:00 | 00:00:00 | |
| WB7NNF | 2026-09-03 17:37:24 | 47.81890 | -117.47884 | 39° | 102km/h | 7984m | 6.2m/s | -35.5°C | 0% | 0hPa | 0V | 00:00:00 | 00:00:00 | 00:00:00 | |
| WB7NNF | 2026-09-03 17:36:43 | 47.81122 | -117.49013 | 51° | 115km/h | 7774m | 5.1m/s | -33.8°C | 0% | 0hPa | 0V | 00:00:00 | 00:00:00 | 00:00:00 | |
| WB7NNF | 2026-09-03 17:36:22 | 47.80727 | -117.49621 | 45° | 99km/h | 7672m | 3.9m/s | -33.0°C | 0% | 0hPa | 0V | 00:00:00 | 00:00:00 | 00:00:00 | |
| WB7NNF | 2026-09-03 17:36:00 | 47.80357 | -117.50216 | 45° | 110km/h | 7568m | 6.3m/s | -32.5°C | 0% | 0hPa | 0V | 00:00:00 | 00:00:00 | 00:00:00 | |
| WB7NNF | 2026-09-03 17:35:39 | 47.80001 | -117.50773 | 52° | 110km/h | 7463m | 6.0m/s | -32.2°C | 0% | 0hPa | 0V | 00:00:00 | 00:00:00 | 00:00:00 | |
| WB7NNF | 2026-09-03 17:35:19 | 47.79712 | -117.51275 | 55° | 88km/h | 7347m | 3.9m/s | -31.3°C | 0% | 0hPa | 0V | 00:00:00 | 00:00:00 | 00:00:00 | |
| WB7NNF | 2026-09-03 17:34:58 | 47.79373 | -117.51784 | 42° | 73km/h | 7234m | 4.2m/s | -30.7°C | 0% | 0hPa | 0V | 00:00:00 | 00:00:00 | 00:00:00 | |
| WB7NNF | 2026-09-03 17:34:36 | 47.79032 | -117.52284 | 43° | 113km/h | 7129m | 6.3m/s | -29.9°C | 0% | 0hPa | 0V | 00:00:00 | 00:00:00 | 00:00:00 | |
| WB7NNF | 2026-09-03 17:34:13 | 47.78611 | -117.52851 | 47° | 115km/h | 7008m | 5.7m/s | -28.9°C | 0% | 0hPa | 0V | 00:00:00 | 00:00:00 | 00:00:00 | |
| WB7NNF | 2026-09-03 17:33:47 | 47.78231 | -117.53480 | 46° | 97km/h | 6866m | 6.2m/s | -27.9°C | 0% | 0hPa | 0V | 00:00:00 | 00:00:00 | 00:00:00 | |
| WB7NNF | 2026-09-03 17:33:25 | 47.77893 | -117.53980 | 30° | 95km/h | 6729m | 5.0m/s | -26.9°C | 0% | 0hPa | 0V | 00:00:00 | 00:00:00 | 00:00:00 | |
| WB7NNF | 2026-09-03 17:32:59 | 47.77516 | -117.54466 | 32° | 73km/h | 6591m | 4.5m/s | -26.2°C | 0% | 0hPa | 0V | 00:00:00 | 00:00:00 | 00:00:00 | |
| WB7NNF | 2026-09-03 17:32:38 | 47.77262 | -117.54832 | 36° | 78km/h | 6487m | 4.3m/s | -25.5°C | 0% | 0hPa | 0V | 00:00:00 | 00:00:00 | 00:00:00 | |
| WB7NNF | 2026-09-03 17:32:18 | 47.76988 | -117.55199 | 55° | 66km/h | 6384m | 3.4m/s | -24.7°C | 0% | 0hPa | 0V | 00:00:00 | 00:00:00 | 00:00:00 | |
| WB7NNF | 2026-09-03 17:31:53 | 47.76683 | -117.55595 | 60° | 66km/h | 6230m | 5.6m/s | -24.4°C | 0% | 0hPa | 0V | 00:00:00 | 00:00:00 | 00:00:00 | |
| WB7NNF | 2026-09-03 17:31:33 | 47.76456 | -117.55884 | 18° | 51km/h | 6109m | 5.3m/s | -24.1°C | 0% | 0hPa | 0V | 00:00:00 | 00:00:00 | 00:00:00 | |
| WB7NNF | 2026-09-03 17:31:12 | 47.76242 | -117.56062 | 8° | 37km/h | 5987m | 5.9m/s | -23.4°C | 0% | 0hPa | 0V | 00:00:00 | 00:00:00 | 00:00:00 | |
| WB7NNF | 2026-09-03 17:30:52 | 47.76067 | -117.56258 | 36° | 29km/h | 5867m | 6.7m/s | -22.4°C | 0% | 0hPa | 0V | 00:00:00 | 00:00:00 | 00:00:00 | |
| WB7NNF | 2026-09-03 17:30:31 | 47.75844 | -117.56341 | 18° | 58km/h | 5752m | 5.0m/s | -21.4°C | 0% | 0hPa | 0V | 00:00:00 | 00:00:00 | 00:00:00 | |
| WB7NNF | 2026-09-03 17:30:09 | 47.75614 | -117.56452 | 17° | 37km/h | 5634m | 5.8m/s | -20.7°C | 0% | 0hPa | 0V | 00:00:00 | 00:00:00 | 00:00:00 | |
| WB7NNF | 2026-09-03 17:29:44 | 47.75341 | -117.56636 | 44° | 58km/h | 5487m | 5.0m/s | -20.0°C | 0% | 0hPa | 0V | 00:00:00 | 00:00:00 | 00:00:00 | |
| WB7NNF | 2026-09-03 17:29:18 | 47.75068 | -117.56832 | 16° | 66km/h | 5345m | 4.4m/s | -18.9°C | 0% | 0hPa | 0V | 00:00:00 | 00:00:00 | 00:00:00 | |
| WB7NNF | 2026-09-03 17:28:54 | 47.74837 | -117.57028 | 53° | 42km/h | 5190m | 5.3m/s | -17.7°C | 0% | 0hPa | 0V | 00:00:00 | 00:00:00 | 00:00:00 | |
| WB7NNF | 2026-09-03 17:28:30 | 47.74631 | -117.57208 | 73° | 29km/h | 5078m | 3.5m/s | -16.8°C | 0% | 0hPa | 0V | 00:00:00 | 00:00:00 | 00:00:00 | |
| WB7NNF | 2026-09-03 17:28:09 | 47.74457 | -117.57391 | 30° | 55km/h | 4972m | 5.3m/s | -16.1°C | 0% | 0hPa | 0V | 00:00:00 | 00:00:00 | 00:00:00 | |
| WB7NNF | 2026-09-03 17:27:44 | 47.74275 | -117.57614 | 63° | 47km/h | 4833m | 4.3m/s | -14.9°C | 0% | 0hPa | 0V | 00:00:00 | 00:00:00 | 00:00:00 | |
| WB7NNF | 2026-09-03 17:27:23 | 47.74111 | -117.57803 | 61° | 37km/h | 4718m | 5.4m/s | -14.5°C | 0% | 0hPa | 0V | 00:00:00 | 00:00:00 | 00:00:00 | |
| WB7NNF | 2026-09-03 17:27:02 | 47.73911 | -117.57960 | 53° | 51km/h | 4592m | 6.9m/s | -13.8°C | 0% | 0hPa | 0V | 00:00:00 | 00:00:00 | 00:00:00 | |
| WB7NNF | 2026-09-03 17:26:41 | 47.73672 | -117.58125 | 40° | 27km/h | 4467m | 8.1m/s | -13.0°C | 0% | 0hPa | 0V | 00:00:00 | 00:00:00 | 00:00:00 | |
| WB7NNF | 2026-09-03 17:26:19 | 47.73442 | -117.58283 | 18° | 64km/h | 4337m | 6.0m/s | -12.0°C | 0% | 0hPa | 0V | 00:00:00 | 00:00:00 | 00:00:00 | |
| WB7NNF | 2026-09-03 17:25:58 | 47.73212 | -117.58418 | 4° | 51km/h | 4227m | 4.8m/s | -11.5°C | 0% | 0hPa | 0V | 00:00:00 | 00:00:00 | 00:00:00 | |
| WB7NNF | 2026-09-03 17:25:38 | 47.73004 | -117.58598 | 33° | 68km/h | 4094m | 7.1m/s | -10.8°C | 0% | 0hPa | 0V | 00:00:00 | 00:00:00 | 00:00:00 | |
| WB7NNF | 2026-09-03 17:24:41 | 47.72536 | -117.58919 | 338° | 15km/h | 3781m | 4.5m/s | -8.7°C | 0% | 0hPa | 0V | 00:00:00 | 00:00:00 | 00:00:00 | |
| WB7NNF | 2026-09-03 17:24:14 | 47.72309 | -117.59048 | 25° | 60km/h | 3613m | 6.4m/s | 0°C | 0% | 0hPa | 0V | 00:00:00 | 00:00:00 | 00:00:00 |